sensor_id;sensor_type;location;lat;lon;timestamp;temperature;humidity
12769;DHT22;6448;48.916;8.990;2023-11-19T00:00:45;13.90;61.70
12769;DHT22;6448;48.916;8.990;2023-11-19T00:01:45;13.90;61.60
12769;DHT22;6448;48.916;8.990;2023-11-19T00:02:48;13.90;61.70
12769;DHT22;6448;48.916;8.990;2023-11-19T00:03:48;13.90;61.60
12769;DHT22;6448;48.916;8.990;2023-11-19T00:04:50;13.90;61.70
12769;DHT22;6448;48.916;8.990;2023-11-19T00:05:51;13.90;61.70
12769;DHT22;6448;48.916;8.990;2023-11-19T00:06:53;14.00;61.80
12769;DHT22;6448;48.916;8.990;2023-11-19T00:07:54;13.90;61.80
12769;DHT22;6448;48.916;8.990;2023-11-19T00:08:55;14.00;61.90
12769;DHT22;6448;48.916;8.990;2023-11-19T00:09:56;14.00;62.00
12769;DHT22;6448;48.916;8.990;2023-11-19T00:10:59;13.90;62.10
12769;DHT22;6448;48.916;8.990;2023-11-19T00:12:02;13.90;62.20
12769;DHT22;6448;48.916;8.990;2023-11-19T00:13:03;14.00;62.20
12769;DHT22;6448;48.916;8.990;2023-11-19T00:14:04;14.00;62.30
12769;DHT22;6448;48.916;8.990;2023-11-19T00:15:09;13.90;62.20
12769;DHT22;6448;48.916;8.990;2023-11-19T00:16:12;13.90;62.30
12769;DHT22;6448;48.916;8.990;2023-11-19T00:17:14;14.00;62.30
12769;DHT22;6448;48.916;8.990;2023-11-19T00:18:14;14.00;62.30
12769;DHT22;6448;48.916;8.990;2023-11-19T00:19:16;14.00;62.40
12769;DHT22;6448;48.916;8.990;2023-11-19T00:20:18;14.00;62.30
12769;DHT22;6448;48.916;8.990;2023-11-19T00:21:19;14.00;62.40
12769;DHT22;6448;48.916;8.990;2023-11-19T00:22:21;14.00;62.40
12769;DHT22;6448;48.916;8.990;2023-11-19T00:23:22;14.00;62.40
12769;DHT22;6448;48.916;8.990;2023-11-19T00:24:24;13.90;62.40
12769;DHT22;6448;48.916;8.990;2023-11-19T00:25:25;14.00;62.40
12769;DHT22;6448;48.916;8.990;2023-11-19T00:26:28;14.00;62.50
12769;DHT22;6448;48.916;8.990;2023-11-19T00:27:31;14.00;62.60
12769;DHT22;6448;48.916;8.990;2023-11-19T00:28:33;14.00;62.60
12769;DHT22;6448;48.916;8.990;2023-11-19T00:29:34;14.00;62.70
12769;DHT22;6448;48.916;8.990;2023-11-19T00:30:36;14.00;62.60
12769;DHT22;6448;48.916;8.990;2023-11-19T00:31:37;13.90;62.60
12769;DHT22;6448;48.916;8.990;2023-11-19T00:32:39;14.00;62.60
12769;DHT22;6448;48.916;8.990;2023-11-19T00:33:40;14.00;62.70
12769;DHT22;6448;48.916;8.990;2023-11-19T00:34:43;14.00;62.70
12769;DHT22;6448;48.916;8.990;2023-11-19T00:35:44;14.00;62.70
12769;DHT22;6448;48.916;8.990;2023-11-19T00:36:47;14.00;62.70
12769;DHT22;6448;48.916;8.990;2023-11-19T00:37:47;14.00;62.70
12769;DHT22;6448;48.916;8.990;2023-11-19T00:38:50;14.00;62.70
12769;DHT22;6448;48.916;8.990;2023-11-19T00:39:51;13.90;62.60
12769;DHT22;6448;48.916;8.990;2023-11-19T00:40:53;14.00;62.70
12769;DHT22;6448;48.916;8.990;2023-11-19T00:41:55;14.00;62.80
12769;DHT22;6448;48.916;8.990;2023-11-19T00:42:56;14.00;62.80
12769;DHT22;6448;48.916;8.990;2023-11-19T00:43:57;14.00;62.80
12769;DHT22;6448;48.916;8.990;2023-11-19T00:44:59;14.00;62.80
12769;DHT22;6448;48.916;8.990;2023-11-19T00:46:01;14.20;63.00
12769;DHT22;6448;48.916;8.990;2023-11-19T00:47:05;14.00;62.90
12769;DHT22;6448;48.916;8.990;2023-11-19T00:48:06;14.00;62.90
12769;DHT22;6448;48.916;8.990;2023-11-19T00:49:08;14.00;62.90
12769;DHT22;6448;48.916;8.990;2023-11-19T00:50:09;14.00;62.90
12769;DHT22;6448;48.916;8.990;2023-11-19T00:51:11;14.00;62.90
12769;DHT22;6448;48.916;8.990;2023-11-19T00:52:13;14.00;62.90
12769;DHT22;6448;48.916;8.990;2023-11-19T00:53:14;14.00;62.90
12769;DHT22;6448;48.916;8.990;2023-11-19T00:54:16;14.00;62.90
12769;DHT22;6448;48.916;8.990;2023-11-19T00:55:17;14.00;62.90
12769;DHT22;6448;48.916;8.990;2023-11-19T00:56:18;14.00;62.90
12769;DHT22;6448;48.916;8.990;2023-11-19T00:57:21;14.10;63.00
12769;DHT22;6448;48.916;8.990;2023-11-19T00:58:22;14.00;63.80
12769;DHT22;6448;48.916;8.990;2023-11-19T00:59:23;14.00;63.00
12769;DHT22;6448;48.916;8.990;2023-11-19T01:00:24;14.00;63.00
12769;DHT22;6448;48.916;8.990;2023-11-19T01:01:27;14.00;63.00
12769;DHT22;6448;48.916;8.990;2023-11-19T01:02:28;14.00;63.00
12769;DHT22;6448;48.916;8.990;2023-11-19T01:03:31;14.00;63.00
12769;DHT22;6448;48.916;8.990;2023-11-19T01:04:34;14.00;63.10
12769;DHT22;6448;48.916;8.990;2023-11-19T01:05:36;14.00;63.10
12769;DHT22;6448;48.916;8.990;2023-11-19T01:06:37;14.00;63.10
12769;DHT22;6448;48.916;8.990;2023-11-19T01:07:39;14.00;63.20
12769;DHT22;6448;48.916;8.990;2023-11-19T01:08:39;14.00;63.20
12769;DHT22;6448;48.916;8.990;2023-11-19T01:09:42;14.00;63.30
12769;DHT22;6448;48.916;8.990;2023-11-19T01:10:43;14.00;63.30
12769;DHT22;6448;48.916;8.990;2023-11-19T01:11:45;14.00;63.40
12769;DHT22;6448;48.916;8.990;2023-11-19T01:12:47;14.00;63.40
12769;DHT22;6448;48.916;8.990;2023-11-19T01:13:50;14.00;63.40
12769;DHT22;6448;48.916;8.990;2023-11-19T01:14:51;14.10;63.60
12769;DHT22;6448;48.916;8.990;2023-11-19T01:15:53;14.00;63.60
12769;DHT22;6448;48.916;8.990;2023-11-19T01:16:54;14.00;63.60
12769;DHT22;6448;48.916;8.990;2023-11-19T01:17:56;14.00;63.60
12769;DHT22;6448;48.916;8.990;2023-11-19T01:18:56;14.00;63.50
12769;DHT22;6448;48.916;8.990;2023-11-19T01:19:58;14.00;63.50
12769;DHT22;6448;48.916;8.990;2023-11-19T01:20:59;14.00;63.50
12769;DHT22;6448;48.916;8.990;2023-11-19T01:22:01;14.00;63.50
12769;DHT22;6448;48.916;8.990;2023-11-19T01:23:02;14.00;63.50
12769;DHT22;6448;48.916;8.990;2023-11-19T01:24:05;14.00;63.50
12769;DHT22;6448;48.916;8.990;2023-11-19T01:25:09;14.00;63.50
12769;DHT22;6448;48.916;8.990;2023-11-19T01:26:12;14.00;63.50
12769;DHT22;6448;48.916;8.990;2023-11-19T01:27:13;14.00;63.50
12769;DHT22;6448;48.916;8.990;2023-11-19T01:28:16;14.00;63.50
12769;DHT22;6448;48.916;8.990;2023-11-19T01:29:17;14.00;63.50
12769;DHT22;6448;48.916;8.990;2023-11-19T01:30:20;14.00;63.50
12769;DHT22;6448;48.916;8.990;2023-11-19T01:31:23;14.00;63.50
12769;DHT22;6448;48.916;8.990;2023-11-19T01:32:25;14.00;63.50
12769;DHT22;6448;48.916;8.990;2023-11-19T01:33:26;14.00;63.50
12769;DHT22;6448;48.916;8.990;2023-11-19T01:34:28;14.10;63.70
12769;DHT22;6448;48.916;8.990;2023-11-19T01:35:30;14.10;63.60
12769;DHT22;6448;48.916;8.990;2023-11-19T01:36:31;14.00;63.50
12769;DHT22;6448;48.916;8.990;2023-11-19T01:37:33;14.00;63.50
12769;DHT22;6448;48.916;8.990;2023-11-19T01:38:36;14.10;63.60
12769;DHT22;6448;48.916;8.990;2023-11-19T01:39:38;14.00;63.50
12769;DHT22;6448;48.916;8.990;2023-11-19T01:40:39;14.00;63.50
12769;DHT22;6448;48.916;8.990;2023-11-19T01:41:40;14.00;63.50
12769;DHT22;6448;48.916;8.990;2023-11-19T01:42:41;14.00;63.50
12769;DHT22;6448;48.916;8.990;2023-11-19T01:43:44;14.10;63.60
12769;DHT22;6448;48.916;8.990;2023-11-19T01:44:56;14.00;63.50
12769;DHT22;6448;48.916;8.990;2023-11-19T01:45:58;14.00;63.60
12769;DHT22;6448;48.916;8.990;2023-11-19T01:46:59;14.10;63.70
12769;DHT22;6448;48.916;8.990;2023-11-19T01:48:02;14.10;63.70
12769;DHT22;6448;48.916;8.990;2023-11-19T01:49:05;14.00;63.60
12769;DHT22;6448;48.916;8.990;2023-11-19T01:50:07;14.10;63.70
12769;DHT22;6448;48.916;8.990;2023-11-19T01:51:09;14.10;63.70
12769;DHT22;6448;48.916;8.990;2023-11-19T01:52:11;14.10;63.70
12769;DHT22;6448;48.916;8.990;2023-11-19T01:53:12;14.10;63.60
12769;DHT22;6448;48.916;8.990;2023-11-19T01:54:14;14.10;63.60
12769;DHT22;6448;48.916;8.990;2023-11-19T01:55:16;14.10;63.70
12769;DHT22;6448;48.916;8.990;2023-11-19T01:56:17;14.10;63.70
12769;DHT22;6448;48.916;8.990;2023-11-19T01:57:19;14.10;63.70
12769;DHT22;6448;48.916;8.990;2023-11-19T01:58:22;14.00;63.60
12769;DHT22;6448;48.916;8.990;2023-11-19T01:59:25;14.10;63.70
12769;DHT22;6448;48.916;8.990;2023-11-19T02:00:28;14.10;63.70
12769;DHT22;6448;48.916;8.990;2023-11-19T02:01:29;14.10;63.70
12769;DHT22;6448;48.916;8.990;2023-11-19T02:02:33;14.10;63.70
12769;DHT22;6448;48.916;8.990;2023-11-19T02:03:34;14.10;63.80
12769;DHT22;6448;48.916;8.990;2023-11-19T02:04:36;14.10;63.80
12769;DHT22;6448;48.916;8.990;2023-11-19T02:05:39;14.10;63.70
12769;DHT22;6448;48.916;8.990;2023-11-19T02:06:42;14.10;63.80
12769;DHT22;6448;48.916;8.990;2023-11-19T02:07:44;14.10;63.80
12769;DHT22;6448;48.916;8.990;2023-11-19T02:08:46;14.10;63.80
12769;DHT22;6448;48.916;8.990;2023-11-19T02:09:47;14.10;63.70
12769;DHT22;6448;48.916;8.990;2023-11-19T02:10:49;14.20;63.80
12769;DHT22;6448;48.916;8.990;2023-11-19T02:11:50;14.10;63.70
12769;DHT22;6448;48.916;8.990;2023-11-19T02:12:52;14.10;63.80
12769;DHT22;6448;48.916;8.990;2023-11-19T02:13:53;14.10;63.80
12769;DHT22;6448;48.916;8.990;2023-11-19T02:14:56;14.10;63.80
12769;DHT22;6448;48.916;8.990;2023-11-19T02:15:59;14.10;63.80
12769;DHT22;6448;48.916;8.990;2023-11-19T02:17:02;14.10;63.80
12769;DHT22;6448;48.916;8.990;2023-11-19T02:18:20;14.10;63.80
12769;DHT22;6448;48.916;8.990;2023-11-19T02:19:22;14.10;63.80
12769;DHT22;6448;48.916;8.990;2023-11-19T02:20:23;14.10;63.80
12769;DHT22;6448;48.916;8.990;2023-11-19T02:21:25;14.30;64.00
12769;DHT22;6448;48.916;8.990;2023-11-19T02:22:26;14.10;63.90
12769;DHT22;6448;48.916;8.990;2023-11-19T02:23:28;14.10;64.70
12769;DHT22;6448;48.916;8.990;2023-11-19T02:24:29;14.10;63.90
12769;DHT22;6448;48.916;8.990;2023-11-19T02:25:33;14.10;63.90
12769;DHT22;6448;48.916;8.990;2023-11-19T02:26:40;14.10;64.00
12769;DHT22;6448;48.916;8.990;2023-11-19T02:27:53;14.10;64.00
12769;DHT22;6448;48.916;8.990;2023-11-19T02:28:56;14.10;64.00
12769;DHT22;6448;48.916;8.990;2023-11-19T02:29:58;14.10;63.90
12769;DHT22;6448;48.916;8.990;2023-11-19T02:30:59;14.10;64.00
12769;DHT22;6448;48.916;8.990;2023-11-19T02:32:01;14.10;64.00
12769;DHT22;6448;48.916;8.990;2023-11-19T02:33:02;14.10;64.00
12769;DHT22;6448;48.916;8.990;2023-11-19T02:34:06;14.10;64.00
12769;DHT22;6448;48.916;8.990;2023-11-19T02:35:07;14.10;64.00
12769;DHT22;6448;48.916;8.990;2023-11-19T02:36:10;14.10;64.00
12769;DHT22;6448;48.916;8.990;2023-11-19T02:37:11;14.10;64.00
12769;DHT22;6448;48.916;8.990;2023-11-19T02:38:12;14.10;64.00
12769;DHT22;6448;48.916;8.990;2023-11-19T02:39:14;14.20;64.10
12769;DHT22;6448;48.916;8.990;2023-11-19T02:40:21;14.20;64.10
12769;DHT22;6448;48.916;8.990;2023-11-19T02:41:24;14.20;64.10
12769;DHT22;6448;48.916;8.990;2023-11-19T02:42:26;14.10;64.00
12769;DHT22;6448;48.916;8.990;2023-11-19T02:43:29;14.20;64.10
12769;DHT22;6448;48.916;8.990;2023-11-19T02:44:33;14.20;64.10
12769;DHT22;6448;48.916;8.990;2023-11-19T02:45:34;14.20;64.10
12769;DHT22;6448;48.916;8.990;2023-11-19T02:46:36;14.10;64.00
12769;DHT22;6448;48.916;8.990;2023-11-19T02:47:38;14.20;64.00
12769;DHT22;6448;48.916;8.990;2023-11-19T02:48:38;14.20;64.00
12769;DHT22;6448;48.916;8.990;2023-11-19T02:49:40;14.20;64.10
12769;DHT22;6448;48.916;8.990;2023-11-19T02:50:43;14.20;64.10
12769;DHT22;6448;48.916;8.990;2023-11-19T02:51:44;14.20;64.10
12769;DHT22;6448;48.916;8.990;2023-11-19T02:52:46;14.20;64.10
12769;DHT22;6448;48.916;8.990;2023-11-19T02:53:47;14.20;64.10
12769;DHT22;6448;48.916;8.990;2023-11-19T02:54:48;14.10;64.00
12769;DHT22;6448;48.916;8.990;2023-11-19T02:55:49;14.20;64.10
12769;DHT22;6448;48.916;8.990;2023-11-19T02:56:52;14.20;64.00
12769;DHT22;6448;48.916;8.990;2023-11-19T02:57:56;14.20;64.10
12769;DHT22;6448;48.916;8.990;2023-11-19T02:59:01;14.20;64.10
12769;DHT22;6448;48.916;8.990;2023-11-19T03:00:08;14.20;64.10
12769;DHT22;6448;48.916;8.990;2023-11-19T03:01:12;14.20;64.10
12769;DHT22;6448;48.916;8.990;2023-11-19T03:02:23;14.10;64.10
12769;DHT22;6448;48.916;8.990;2023-11-19T03:03:27;14.10;64.10
12769;DHT22;6448;48.916;8.990;2023-11-19T03:04:38;14.20;65.00
12769;DHT22;6448;48.916;8.990;2023-11-19T03:05:40;14.20;64.20
12769;DHT22;6448;48.916;8.990;2023-11-19T03:06:42;14.20;64.20
12769;DHT22;6448;48.916;8.990;2023-11-19T03:07:43;14.20;64.20
12769;DHT22;6448;48.916;8.990;2023-11-19T03:08:45;14.20;64.20
12769;DHT22;6448;48.916;8.990;2023-11-19T03:09:46;14.20;64.20
12769;DHT22;6448;48.916;8.990;2023-11-19T03:10:47;14.20;64.20
12769;DHT22;6448;48.916;8.990;2023-11-19T03:11:49;14.20;64.20
12769;DHT22;6448;48.916;8.990;2023-11-19T03:12:51;14.20;64.20
12769;DHT22;6448;48.916;8.990;2023-11-19T03:13:52;14.20;64.20
12769;DHT22;6448;48.916;8.990;2023-11-19T03:14:54;14.20;64.20
12769;DHT22;6448;48.916;8.990;2023-11-19T03:15:56;14.20;64.20
12769;DHT22;6448;48.916;8.990;2023-11-19T03:16:57;14.20;64.20
12769;DHT22;6448;48.916;8.990;2023-11-19T03:17:59;14.20;64.20
12769;DHT22;6448;48.916;8.990;2023-11-19T03:18:59;14.20;64.20
12769;DHT22;6448;48.916;8.990;2023-11-19T03:20:02;14.20;64.30
12769;DHT22;6448;48.916;8.990;2023-11-19T03:21:04;14.20;64.30
12769;DHT22;6448;48.916;8.990;2023-11-19T03:22:05;14.20;64.30
12769;DHT22;6448;48.916;8.990;2023-11-19T03:23:07;14.10;64.30
12769;DHT22;6448;48.916;8.990;2023-11-19T03:24:09;14.20;64.50
12769;DHT22;6448;48.916;8.990;2023-11-19T03:25:10;14.20;64.50
12769;DHT22;6448;48.916;8.990;2023-11-19T03:26:11;14.20;64.60
12769;DHT22;6448;48.916;8.990;2023-11-19T03:27:13;14.20;64.60
12769;DHT22;6448;48.916;8.990;2023-11-19T03:28:15;14.20;64.70
12769;DHT22;6448;48.916;8.990;2023-11-19T03:29:16;14.10;64.60
12769;DHT22;6448;48.916;8.990;2023-11-19T03:30:19;14.20;64.70
12769;DHT22;6448;48.916;8.990;2023-11-19T03:31:21;14.20;64.70
12769;DHT22;6448;48.916;8.990;2023-11-19T03:32:23;14.10;64.60
12769;DHT22;6448;48.916;8.990;2023-11-19T03:33:23;14.20;64.70
12769;DHT22;6448;48.916;8.990;2023-11-19T03:34:26;14.20;64.70
12769;DHT22;6448;48.916;8.990;2023-11-19T03:35:27;14.20;64.70
12769;DHT22;6448;48.916;8.990;2023-11-19T03:36:32;14.20;64.70
12769;DHT22;6448;48.916;8.990;2023-11-19T03:37:33;14.20;64.70
12769;DHT22;6448;48.916;8.990;2023-11-19T03:38:34;14.20;64.70
12769;DHT22;6448;48.916;8.990;2023-11-19T03:39:36;14.20;64.70
12769;DHT22;6448;48.916;8.990;2023-11-19T03:40:36;14.20;64.60
12769;DHT22;6448;48.916;8.990;2023-11-19T03:41:38;14.20;64.60
12769;DHT22;6448;48.916;8.990;2023-11-19T03:42:40;14.20;64.60
12769;DHT22;6448;48.916;8.990;2023-11-19T03:43:41;14.20;64.60
12769;DHT22;6448;48.916;8.990;2023-11-19T03:44:43;14.20;64.60
12769;DHT22;6448;48.916;8.990;2023-11-19T03:45:45;14.20;64.60
12769;DHT22;6448;48.916;8.990;2023-11-19T03:46:47;14.20;64.60
12769;DHT22;6448;48.916;8.990;2023-11-19T03:47:48;14.20;64.60
12769;DHT22;6448;48.916;8.990;2023-11-19T03:48:51;14.20;64.70
12769;DHT22;6448;48.916;8.990;2023-11-19T03:49:52;14.20;64.70
12769;DHT22;6448;48.916;8.990;2023-11-19T03:50:52;14.20;64.70
12769;DHT22;6448;48.916;8.990;2023-11-19T03:51:54;14.40;64.80
12769;DHT22;6448;48.916;8.990;2023-11-19T03:52:55;14.20;64.70
12769;DHT22;6448;48.916;8.990;2023-11-19T03:53:57;14.20;64.70
12769;DHT22;6448;48.916;8.990;2023-11-19T03:54:59;14.20;64.60
12769;DHT22;6448;48.916;8.990;2023-11-19T03:56:01;14.20;64.60
12769;DHT22;6448;48.916;8.990;2023-11-19T03:57:03;14.30;64.70
12769;DHT22;6448;48.916;8.990;2023-11-19T03:58:04;14.20;64.80
12769;DHT22;6448;48.916;8.990;2023-11-19T03:59:06;14.30;64.80
12769;DHT22;6448;48.916;8.990;2023-11-19T04:00:08;14.30;64.70
12769;DHT22;6448;48.916;8.990;2023-11-19T04:01:15;14.20;64.70
12769;DHT22;6448;48.916;8.990;2023-11-19T04:02:16;14.20;64.70
12769;DHT22;6448;48.916;8.990;2023-11-19T04:03:18;14.40;64.80
12769;DHT22;6448;48.916;8.990;2023-11-19T04:04:20;14.30;64.70
12769;DHT22;6448;48.916;8.990;2023-11-19T04:05:21;14.20;64.70
12769;DHT22;6448;48.916;8.990;2023-11-19T04:06:22;14.30;64.70
12769;DHT22;6448;48.916;8.990;2023-11-19T04:07:24;14.20;64.70
12769;DHT22;6448;48.916;8.990;2023-11-19T04:08:25;14.30;64.70
12769;DHT22;6448;48.916;8.990;2023-11-19T04:09:26;14.30;64.70
12769;DHT22;6448;48.916;8.990;2023-11-19T04:10:27;14.30;64.70
12769;DHT22;6448;48.916;8.990;2023-11-19T04:11:28;14.30;64.70
12769;DHT22;6448;48.916;8.990;2023-11-19T04:12:30;14.20;64.60
12769;DHT22;6448;48.916;8.990;2023-11-19T04:13:31;14.20;64.70
12769;DHT22;6448;48.916;8.990;2023-11-19T04:14:33;14.20;64.70
12769;DHT22;6448;48.916;8.990;2023-11-19T04:15:33;14.30;64.70
12769;DHT22;6448;48.916;8.990;2023-11-19T04:16:36;14.30;64.70
12769;DHT22;6448;48.916;8.990;2023-11-19T04:17:37;14.30;64.70
12769;DHT22;6448;48.916;8.990;2023-11-19T04:18:39;14.30;64.70
12769;DHT22;6448;48.916;8.990;2023-11-19T04:19:40;14.30;64.70
12769;DHT22;6448;48.916;8.990;2023-11-19T04:20:41;14.30;64.70
12769;DHT22;6448;48.916;8.990;2023-11-19T04:21:43;14.30;64.90
12769;DHT22;6448;48.916;8.990;2023-11-19T04:22:44;14.30;65.00
12769;DHT22;6448;48.916;8.990;2023-11-19T04:23:45;14.30;64.90
12769;DHT22;6448;48.916;8.990;2023-11-19T04:24:47;14.50;65.00
12769;DHT22;6448;48.916;8.990;2023-11-19T04:25:47;14.30;65.00
12769;DHT22;6448;48.916;8.990;2023-11-19T04:26:49;14.30;65.00
12769;DHT22;6448;48.916;8.990;2023-11-19T04:27:50;14.30;65.00
12769;DHT22;6448;48.916;8.990;2023-11-19T04:28:52;14.30;65.00
12769;DHT22;6448;48.916;8.990;2023-11-19T04:29:54;14.30;65.00
12769;DHT22;6448;48.916;8.990;2023-11-19T04:30:56;14.30;65.00
12769;DHT22;6448;48.916;8.990;2023-11-19T04:32:00;14.30;65.00
12769;DHT22;6448;48.916;8.990;2023-11-19T04:33:02;14.30;65.00
12769;DHT22;6448;48.916;8.990;2023-11-19T04:34:04;14.30;65.00
12769;DHT22;6448;48.916;8.990;2023-11-19T04:35:05;14.30;65.00
12769;DHT22;6448;48.916;8.990;2023-11-19T04:36:09;14.30;65.00
12769;DHT22;6448;48.916;8.990;2023-11-19T04:37:10;14.30;65.00
12769;DHT22;6448;48.916;8.990;2023-11-19T04:38:11;14.30;65.00
12769;DHT22;6448;48.916;8.990;2023-11-19T04:39:12;14.30;65.10
12769;DHT22;6448;48.916;8.990;2023-11-19T04:40:16;14.30;65.20
12769;DHT22;6448;48.916;8.990;2023-11-19T04:41:18;14.30;65.50
12769;DHT22;6448;48.916;8.990;2023-11-19T04:42:22;14.30;65.60
12769;DHT22;6448;48.916;8.990;2023-11-19T04:43:23;14.30;65.60
12769;DHT22;6448;48.916;8.990;2023-11-19T04:44:25;14.30;65.80
12769;DHT22;6448;48.916;8.990;2023-11-19T04:45:26;14.30;65.90
12769;DHT22;6448;48.916;8.990;2023-11-19T04:46:26;14.40;66.00
12769;DHT22;6448;48.916;8.990;2023-11-19T04:47:29;14.30;65.90
12769;DHT22;6448;48.916;8.990;2023-11-19T04:48:30;14.30;66.00
12769;DHT22;6448;48.916;8.990;2023-11-19T04:49:32;14.30;66.10
12769;DHT22;6448;48.916;8.990;2023-11-19T04:50:33;14.30;66.20
12769;DHT22;6448;48.916;8.990;2023-11-19T04:51:38;14.40;66.40
12769;DHT22;6448;48.916;8.990;2023-11-19T04:52:39;14.30;66.40
12769;DHT22;6448;48.916;8.990;2023-11-19T04:53:42;14.30;66.60
12769;DHT22;6448;48.916;8.990;2023-11-19T04:54:43;14.30;66.80
12769;DHT22;6448;48.916;8.990;2023-11-19T04:55:45;14.40;67.30
12769;DHT22;6448;48.916;8.990;2023-11-19T04:56:46;14.40;67.60
12769;DHT22;6448;48.916;8.990;2023-11-19T04:57:48;14.40;67.80
12769;DHT22;6448;48.916;8.990;2023-11-19T04:58:48;14.40;68.20
12769;DHT22;6448;48.916;8.990;2023-11-19T04:59:49;14.40;68.50
12769;DHT22;6448;48.916;8.990;2023-11-19T05:00:51;14.40;68.90
12769;DHT22;6448;48.916;8.990;2023-11-19T05:01:52;14.50;69.50
12769;DHT22;6448;48.916;8.990;2023-11-19T05:02:55;14.50;70.00
12769;DHT22;6448;48.916;8.990;2023-11-19T05:03:56;14.50;70.20
12769;DHT22;6448;48.916;8.990;2023-11-19T05:04:59;14.50;70.50
12769;DHT22;6448;48.916;8.990;2023-11-19T05:06:01;14.60;70.80
12769;DHT22;6448;48.916;8.990;2023-11-19T05:07:02;14.60;71.00
12769;DHT22;6448;48.916;8.990;2023-11-19T05:08:04;14.70;72.10
12769;DHT22;6448;48.916;8.990;2023-11-19T05:09:05;14.70;71.40
12769;DHT22;6448;48.916;8.990;2023-11-19T05:10:08;14.70;71.50
12769;DHT22;6448;48.916;8.990;2023-11-19T05:11:09;14.80;71.70
12769;DHT22;6448;48.916;8.990;2023-11-19T05:12:12;14.80;71.70
12769;DHT22;6448;48.916;8.990;2023-11-19T05:13:13;14.90;71.80
12769;DHT22;6448;48.916;8.990;2023-11-19T05:14:15;14.90;71.80
12769;DHT22;6448;48.916;8.990;2023-11-19T05:15:16;15.00;71.90
12769;DHT22;6448;48.916;8.990;2023-11-19T05:16:17;15.00;71.90
12769;DHT22;6448;48.916;8.990;2023-11-19T05:17:21;15.10;71.90
12769;DHT22;6448;48.916;8.990;2023-11-19T05:18:23;15.10;71.90
12769;DHT22;6448;48.916;8.990;2023-11-19T05:19:25;15.10;71.70
12769;DHT22;6448;48.916;8.990;2023-11-19T05:20:25;15.20;71.70
12769;DHT22;6448;48.916;8.990;2023-11-19T05:21:27;15.20;71.70
12769;DHT22;6448;48.916;8.990;2023-11-19T05:22:28;15.30;71.70
12769;DHT22;6448;48.916;8.990;2023-11-19T05:23:30;15.30;71.60
12769;DHT22;6448;48.916;8.990;2023-11-19T05:24:31;15.30;71.50
12769;DHT22;6448;48.916;8.990;2023-11-19T05:25:33;15.40;71.60
12769;DHT22;6448;48.916;8.990;2023-11-19T05:26:34;15.40;71.50
12769;DHT22;6448;48.916;8.990;2023-11-19T05:27:36;15.50;71.50
12769;DHT22;6448;48.916;8.990;2023-11-19T05:28:38;15.50;71.40
12769;DHT22;6448;48.916;8.990;2023-11-19T05:29:40;15.50;71.30
12769;DHT22;6448;48.916;8.990;2023-11-19T05:30:41;15.60;71.30
12769;DHT22;6448;48.916;8.990;2023-11-19T05:31:43;15.60;71.20
12769;DHT22;6448;48.916;8.990;2023-11-19T05:32:44;15.70;71.20
12769;DHT22;6448;48.916;8.990;2023-11-19T05:33:47;15.70;71.10
12769;DHT22;6448;48.916;8.990;2023-11-19T05:34:48;15.70;70.90
12769;DHT22;6448;48.916;8.990;2023-11-19T05:35:50;15.70;70.80
12769;DHT22;6448;48.916;8.990;2023-11-19T05:36:51;15.80;70.80
12769;DHT22;6448;48.916;8.990;2023-11-19T05:37:53;15.80;70.80
12769;DHT22;6448;48.916;8.990;2023-11-19T05:38:54;15.80;70.70
12769;DHT22;6448;48.916;8.990;2023-11-19T05:39:55;15.90;70.60
12769;DHT22;6448;48.916;8.990;2023-11-19T05:40:56;15.90;70.50
12769;DHT22;6448;48.916;8.990;2023-11-19T05:41:58;15.90;70.30
12769;DHT22;6448;48.916;8.990;2023-11-19T05:42:59;15.90;70.20
12769;DHT22;6448;48.916;8.990;2023-11-19T05:44:01;15.90;70.20
12769;DHT22;6448;48.916;8.990;2023-11-19T05:45:02;15.90;70.00
12769;DHT22;6448;48.916;8.990;2023-11-19T05:46:04;16.00;70.00
12769;DHT22;6448;48.916;8.990;2023-11-19T05:47:05;16.00;69.90
12769;DHT22;6448;48.916;8.990;2023-11-19T05:48:07;16.00;69.80
12769;DHT22;6448;48.916;8.990;2023-11-19T05:49:11;16.10;69.80
12769;DHT22;6448;48.916;8.990;2023-11-19T05:50:13;16.00;69.60
12769;DHT22;6448;48.916;8.990;2023-11-19T05:51:15;16.10;69.50
12769;DHT22;6448;48.916;8.990;2023-11-19T05:52:16;16.10;69.40
12769;DHT22;6448;48.916;8.990;2023-11-19T05:53:18;16.10;69.30
12769;DHT22;6448;48.916;8.990;2023-11-19T05:54:19;16.10;70.00
12769;DHT22;6448;48.916;8.990;2023-11-19T05:55:21;16.10;69.20
12769;DHT22;6448;48.916;8.990;2023-11-19T05:56:23;16.10;69.10
12769;DHT22;6448;48.916;8.990;2023-11-19T05:57:26;16.20;69.80
12769;DHT22;6448;48.916;8.990;2023-11-19T05:58:29;16.20;68.90
12769;DHT22;6448;48.916;8.990;2023-11-19T05:59:33;16.20;68.90
12769;DHT22;6448;48.916;8.990;2023-11-19T06:00:33;16.20;68.80
12769;DHT22;6448;48.916;8.990;2023-11-19T06:01:36;16.30;68.70
12769;DHT22;6448;48.916;8.990;2023-11-19T06:02:37;16.30;68.70
12769;DHT22;6448;48.916;8.990;2023-11-19T06:03:38;16.30;68.60
12769;DHT22;6448;48.916;8.990;2023-11-19T06:04:41;16.30;68.50
12769;DHT22;6448;48.916;8.990;2023-11-19T06:05:44;16.30;68.50
12769;DHT22;6448;48.916;8.990;2023-11-19T06:06:46;16.30;68.40
12769;DHT22;6448;48.916;8.990;2023-11-19T06:07:47;16.30;68.40
12769;DHT22;6448;48.916;8.990;2023-11-19T06:08:48;16.30;68.40
12769;DHT22;6448;48.916;8.990;2023-11-19T06:09:51;16.30;68.40
12769;DHT22;6448;48.916;8.990;2023-11-19T06:10:52;16.30;68.30
12769;DHT22;6448;48.916;8.990;2023-11-19T06:11:54;16.40;68.20
12769;DHT22;6448;48.916;8.990;2023-11-19T06:12:58;16.40;68.20
12769;DHT22;6448;48.916;8.990;2023-11-19T06:14:00;16.40;68.20
12769;DHT22;6448;48.916;8.990;2023-11-19T06:15:00;16.40;68.10
12769;DHT22;6448;48.916;8.990;2023-11-19T06:16:02;16.40;68.10
12769;DHT22;6448;48.916;8.990;2023-11-19T06:17:04;16.40;68.10
12769;DHT22;6448;48.916;8.990;2023-11-19T06:18:05;16.40;68.10
12769;DHT22;6448;48.916;8.990;2023-11-19T06:19:07;16.40;68.10
12769;DHT22;6448;48.916;8.990;2023-11-19T06:20:10;16.40;68.00
12769;DHT22;6448;48.916;8.990;2023-11-19T06:21:12;16.50;68.00
12769;DHT22;6448;48.916;8.990;2023-11-19T06:22:13;16.50;67.90
12769;DHT22;6448;48.916;8.990;2023-11-19T06:23:15;16.50;67.80
12769;DHT22;6448;48.916;8.990;2023-11-19T06:24:16;16.50;67.80
12769;DHT22;6448;48.916;8.990;2023-11-19T06:25:17;16.50;67.70
12769;DHT22;6448;48.916;8.990;2023-11-19T06:26:19;16.50;67.70
12769;DHT22;6448;48.916;8.990;2023-11-19T06:27:22;16.50;67.60
12769;DHT22;6448;48.916;8.990;2023-11-19T06:28:23;16.50;67.60
12769;DHT22;6448;48.916;8.990;2023-11-19T06:29:24;16.50;67.50
12769;DHT22;6448;48.916;8.990;2023-11-19T06:30:25;16.50;67.50
12769;DHT22;6448;48.916;8.990;2023-11-19T06:31:28;16.50;67.50
12769;DHT22;6448;48.916;8.990;2023-11-19T06:32:29;16.60;67.50
12769;DHT22;6448;48.916;8.990;2023-11-19T06:33:31;16.60;67.50
12769;DHT22;6448;48.916;8.990;2023-11-19T06:34:32;16.50;67.30
12769;DHT22;6448;48.916;8.990;2023-11-19T06:35:36;16.50;67.30
12769;DHT22;6448;48.916;8.990;2023-11-19T06:36:37;16.60;67.30
12769;DHT22;6448;48.916;8.990;2023-11-19T06:37:39;16.60;67.20